< < Back
Terminal Aerodrome Forecast


Current Version              Previous Versions:   1  2  3  4  5  6  7  8  9  

Terminal Aerodrome Forecast

183
FTUS44 KMOB 282320
TAFPNS
TAF
KPNS 282320Z 2900/2924 25008KT P6SM SCT250
     FM290300 22004KT P6SM SCT250
     FM291800 19010KT P6SM SCT050
      TEMPO 2918/2921 4SM -TSRA BKN050CB=

Latest METAR

811
SAUS70 KWBC 290300 RRM
MTRPNS
METAR KPNS 290253Z 23005KT 10SM CLR 29/24 A3004 RMK AO2 SLP172 T02890244
51016


USA.gov is the U.S. government's official web portal to all federal, state and local government web resources and services.